createdAt,value
2023-03-01T00:02:13.136Z,-1.30
2023-03-01T00:04:39.880Z,-1.30
2023-03-01T00:07:06.567Z,-1.30
2023-03-01T00:09:33.376Z,-1.40
2023-03-01T00:12:00.102Z,-1.30
2023-03-01T00:14:26.781Z,-1.40
2023-03-01T00:16:53.642Z,-1.40
2023-03-01T00:19:21.052Z,-1.40
2023-03-01T00:21:47.704Z,-1.40
2023-03-01T00:24:14.540Z,-1.40
2023-03-01T00:26:41.333Z,-1.40
2023-03-01T00:29:08.145Z,-1.40
2023-03-01T00:31:35.165Z,-1.40
2023-03-01T00:34:05.546Z,-1.50
2023-03-01T00:36:34.780Z,-1.50
2023-03-01T00:39:02.504Z,-1.50
2023-03-01T00:41:29.406Z,-1.50
2023-03-01T00:43:56.811Z,-1.50
2023-03-01T00:46:26.587Z,-1.50
2023-03-01T00:48:54.037Z,-1.50
2023-03-01T00:51:26.611Z,-1.60
2023-03-01T00:53:55.106Z,-1.50
2023-03-01T00:56:22.002Z,-1.60
2023-03-01T00:58:48.806Z,-1.60
2023-03-01T01:01:21.645Z,-1.60
2023-03-01T01:03:50.662Z,-1.60
2023-03-01T01:06:22.785Z,-1.60
2023-03-01T01:08:50.528Z,-1.60
2023-03-01T01:11:17.501Z,-1.60
2023-03-01T01:13:46.366Z,-1.70
2023-03-01T01:16:13.779Z,-1.70
2023-03-01T01:18:41.460Z,-1.70
2023-03-01T01:21:11.304Z,-1.70
2023-03-01T01:23:39.497Z,-1.70
2023-03-01T01:26:12.213Z,-1.80
2023-03-01T01:28:39.017Z,-1.80
2023-03-01T01:31:06.828Z,-1.80
2023-03-01T01:33:34.416Z,-1.80
2023-03-01T01:36:01.251Z,-1.80
2023-03-01T01:38:28.008Z,-1.80
2023-03-01T01:40:54.767Z,-1.90
2023-03-01T01:43:34.044Z,-1.90
2023-03-01T01:46:14.060Z,-1.90
2023-03-01T01:48:43.068Z,-1.90
2023-03-01T01:51:16.496Z,-2.00
2023-03-01T01:53:44.324Z,-1.90
2023-03-01T01:56:12.960Z,-2.00
2023-03-01T01:58:39.913Z,-2.00
2023-03-01T02:01:06.593Z,-2.00
2023-03-01T02:03:38.373Z,-2.00
2023-03-01T02:06:08.432Z,-2.00
2023-03-01T02:08:38.931Z,-2.10
2023-03-01T02:11:06.781Z,-2.10
2023-03-01T02:13:34.695Z,-2.10
2023-03-01T02:16:12.547Z,-2.10
2023-03-01T02:18:40.451Z,-2.10
2023-03-01T02:21:18.988Z,-2.10
2023-03-01T02:23:45.708Z,-2.20
2023-03-01T02:26:34.756Z,-2.20
2023-03-01T02:29:01.527Z,-2.20
2023-03-01T02:31:43.354Z,-2.20
2023-03-01T02:34:18.884Z,-2.20
2023-03-01T02:36:47.414Z,-2.20
2023-03-01T02:39:20.037Z,-2.20
2023-03-01T02:41:52.464Z,-2.20
2023-03-01T02:44:19.220Z,-2.30
2023-03-01T02:46:51.443Z,-2.30
2023-03-01T02:49:27.292Z,-2.30
2023-03-01T02:52:10.538Z,-2.30
2023-03-01T02:54:49.417Z,-2.30
2023-03-01T02:57:17.153Z,-2.40
2023-03-01T02:59:44.083Z,-2.30
2023-03-01T03:02:36.925Z,-2.30
2023-03-01T03:05:09.949Z,-2.30
2023-03-01T03:07:38.463Z,-2.40
2023-03-01T03:10:07.131Z,-2.40
2023-03-01T03:12:33.747Z,-2.40
2023-03-01T03:15:00.467Z,-2.40
2023-03-01T03:17:27.196Z,-2.40
2023-03-01T03:19:53.904Z,-2.40
2023-03-01T03:22:20.531Z,-2.40
2023-03-01T03:24:47.222Z,-2.40
2023-03-01T03:27:13.892Z,-2.40
2023-03-01T03:29:40.696Z,-2.30
2023-03-01T03:32:08.110Z,-2.40
2023-03-01T03:34:34.813Z,-2.30
2023-03-01T03:37:01.580Z,-2.30
2023-03-01T03:39:28.489Z,-2.30
2023-03-01T03:41:55.349Z,-2.20
2023-03-01T03:44:22.389Z,-2.20
2023-03-01T03:46:49.018Z,-2.10
2023-03-01T03:49:15.715Z,-2.00
2023-03-01T03:51:42.408Z,-2.00
2023-03-01T03:54:09.061Z,-2.00
2023-03-01T03:56:35.912Z,-1.90
2023-03-01T03:59:02.684Z,-1.90
2023-03-01T04:01:29.395Z,-1.90
2023-03-01T04:03:56.263Z,-1.80
2023-03-01T04:06:23.141Z,-1.80
2023-03-01T04:08:51.958Z,-1.80
2023-03-01T04:11:27.758Z,-1.80
2023-03-01T04:13:56.518Z,-1.80
2023-03-01T04:16:24.261Z,-1.70
2023-03-01T04:18:51.368Z,-1.70
2023-03-01T04:21:18.149Z,-1.70
2023-03-01T04:23:44.864Z,-1.70
2023-03-01T04:26:11.546Z,-1.60
2023-03-01T04:28:47.077Z,-1.60
2023-03-01T04:31:19.376Z,-1.60
2023-03-01T04:33:47.567Z,-1.60
2023-03-01T04:36:16.259Z,-1.60
2023-03-01T04:38:43.404Z,-1.50
2023-03-01T04:41:11.808Z,-1.50
2023-03-01T04:43:38.868Z,-1.50
2023-03-01T04:46:09.861Z,-1.60
2023-03-01T04:48:37.874Z,-1.50
2023-03-01T04:51:05.332Z,-1.50
2023-03-01T04:53:33.300Z,-1.50
2023-03-01T04:56:00.418Z,-1.50
2023-03-01T04:58:28.200Z,-1.50
2023-03-01T05:00:55.322Z,-1.50
2023-03-01T05:03:22.695Z,-1.50
2023-03-01T05:05:52.221Z,-1.50
2023-03-01T05:08:19.515Z,-1.50
2023-03-01T05:10:49.172Z,-1.50
2023-03-01T05:13:21.737Z,-1.50
2023-03-01T05:15:59.878Z,-1.50
2023-03-01T05:18:27.979Z,-1.50
2023-03-01T05:20:57.155Z,-1.50
2023-03-01T05:23:24.542Z,-1.50
2023-03-01T05:25:53.208Z,-1.50
2023-03-01T05:28:20.627Z,-1.50
2023-03-01T05:30:47.835Z,-1.50
2023-03-01T05:33:14.896Z,-1.40
2023-03-01T05:35:45.616Z,-1.40
2023-03-01T05:38:16.440Z,-1.40
2023-03-01T05:40:44.768Z,-1.40
2023-03-01T05:43:11.947Z,-1.30
2023-03-01T05:45:40.009Z,-1.40
2023-03-01T05:48:07.220Z,-1.40
2023-03-01T05:50:40.106Z,-1.40
2023-03-01T05:53:10.135Z,-1.40
2023-03-01T05:55:37.231Z,-1.40
2023-03-01T05:58:05.856Z,-1.40
2023-03-01T06:00:33.105Z,-1.40
2023-03-01T06:03:00.341Z,-1.40
2023-03-01T06:05:27.745Z,-1.40
2023-03-01T06:07:54.719Z,-1.40
2023-03-01T06:10:23.130Z,-1.50
2023-03-01T06:12:50.064Z,-1.50
2023-03-01T06:15:17.663Z,-1.50
2023-03-01T06:17:46.821Z,-1.50
2023-03-01T06:20:16.413Z,-1.50
2023-03-01T06:22:44.372Z,-1.60
2023-03-01T06:25:13.482Z,-1.60
2023-03-01T06:27:40.820Z,-1.60
2023-03-01T06:30:10.810Z,-1.60
2023-03-01T06:32:38.160Z,-1.60
2023-03-01T06:35:05.941Z,-1.60
2023-03-01T06:37:32.567Z,-1.60
2023-03-01T06:39:59.247Z,-1.50
2023-03-01T06:42:25.929Z,-1.50
2023-03-01T06:44:52.572Z,-1.40
2023-03-01T06:47:19.196Z,-1.40
2023-03-01T06:49:45.878Z,-1.30
2023-03-01T06:52:12.552Z,-1.30
2023-03-01T06:54:39.165Z,-1.30
2023-03-01T06:57:05.884Z,-1.30
2023-03-01T06:59:32.577Z,-1.20
2023-03-01T07:01:59.291Z,-1.20
2023-03-01T07:04:26.002Z,-1.10
2023-03-01T07:06:56.060Z,-1.10
2023-03-01T07:09:25.885Z,-1.10
2023-03-01T07:11:52.629Z,-1.00
2023-03-01T07:14:20.847Z,-1.00
2023-03-01T07:16:47.578Z,-0.90
2023-03-01T07:19:14.301Z,-0.90
2023-03-01T07:21:40.948Z,-0.80
2023-03-01T07:24:08.705Z,-0.70
2023-03-01T07:26:35.385Z,-0.60
2023-03-01T07:29:02.929Z,-0.60
2023-03-01T07:31:29.701Z,-0.50
2023-03-01T07:33:56.575Z,-0.50
2023-03-01T07:36:23.717Z,-0.40
2023-03-01T07:38:50.541Z,-0.40
2023-03-01T07:41:17.490Z,-0.30
2023-03-01T07:43:44.244Z,-0.20
2023-03-01T07:46:11.363Z,-0.20
2023-03-01T07:48:38.603Z,-0.20
2023-03-01T07:51:06.693Z,-0.30
2023-03-01T07:53:35.036Z,-0.40
2023-03-01T07:56:06.204Z,-0.30
2023-03-01T07:58:34.890Z,-0.30
2023-03-01T08:01:06.261Z,-0.20
2023-03-01T08:03:33.474Z,-0.20
2023-03-01T08:06:05.259Z,-0.10
2023-03-01T08:08:32.204Z,0.00
2023-03-01T08:11:00.026Z,0.10
2023-03-01T08:13:27.221Z,0.20
2023-03-01T08:15:54.040Z,0.30
2023-03-01T08:18:21.925Z,0.30
2023-03-01T08:20:48.919Z,0.40
2023-03-01T08:23:15.586Z,0.50
2023-03-01T08:25:42.506Z,0.60
2023-03-01T08:28:09.189Z,0.70
2023-03-01T08:30:36.345Z,0.70
2023-03-01T08:33:03.066Z,0.80
2023-03-01T08:35:29.785Z,0.80
2023-03-01T08:37:56.503Z,0.90
2023-03-01T08:40:23.155Z,0.90
2023-03-01T08:42:49.799Z,1.00
2023-03-01T08:45:19.127Z,1.10
2023-03-01T08:47:46.235Z,1.10
2023-03-01T08:50:13.079Z,1.20
2023-03-01T08:52:39.775Z,1.20
2023-03-01T08:55:07.093Z,1.20
2023-03-01T08:57:33.737Z,1.20
2023-03-01T09:00:00.398Z,1.30
2023-03-01T09:02:27.145Z,1.30
2023-03-01T09:04:53.894Z,1.40
2023-03-01T09:07:20.535Z,1.40
2023-03-01T09:09:47.318Z,1.50
2023-03-01T09:12:14.136Z,1.60
2023-03-01T09:14:42.144Z,1.80
2023-03-01T09:17:08.880Z,1.90
2023-03-01T09:19:35.644Z,2.10
2023-03-01T09:22:04.434Z,2.10
2023-03-01T09:24:31.110Z,2.10
2023-03-01T09:26:58.346Z,2.10
2023-03-01T09:29:25.568Z,2.10
2023-03-01T09:31:55.878Z,2.20
2023-03-01T09:34:24.142Z,2.20
2023-03-01T09:36:52.114Z,2.20
2023-03-01T09:39:19.128Z,2.20
2023-03-01T09:41:51.498Z,2.20
2023-03-01T09:44:36.470Z,2.20
2023-03-01T09:47:03.564Z,2.30
2023-03-01T09:49:33.017Z,2.30
2023-03-01T09:52:02.641Z,2.40
2023-03-01T09:54:29.349Z,2.40
2023-03-01T09:57:10.053Z,2.50
2023-03-01T09:59:45.941Z,2.50
2023-03-01T10:02:30.130Z,2.40
2023-03-01T10:05:24.426Z,2.60
2023-03-01T10:08:09.174Z,2.70
2023-03-01T10:10:41.394Z,2.70
2023-03-01T10:13:22.866Z,2.70
2023-03-01T10:15:57.062Z,2.60
2023-03-01T10:18:27.610Z,2.70
2023-03-01T10:21:02.962Z,2.70
2023-03-01T10:23:32.969Z,2.70
2023-03-01T10:26:31.325Z,2.70
2023-03-01T10:29:11.307Z,2.80
2023-03-01T10:31:44.797Z,2.90
2023-03-01T10:34:17.699Z,2.80
2023-03-01T10:36:49.094Z,2.80
2023-03-01T10:39:18.653Z,2.90
2023-03-01T10:41:56.725Z,3.00
2023-03-01T10:44:37.101Z,3.00
2023-03-01T10:47:03.924Z,3.10
2023-03-01T10:49:30.691Z,3.20
2023-03-01T10:51:57.396Z,3.30
2023-03-01T10:54:29.343Z,3.30
2023-03-01T10:57:02.153Z,3.30
2023-03-01T10:59:29.940Z,3.30
2023-03-01T11:02:26.373Z,3.40
2023-03-01T11:05:06.853Z,3.40
2023-03-01T11:07:57.642Z,3.40
2023-03-01T11:10:30.045Z,3.40
2023-03-01T11:13:16.965Z,3.40
2023-03-01T11:15:44.247Z,3.30
2023-03-01T11:18:23.696Z,3.30
2023-03-01T11:20:54.456Z,3.20
2023-03-01T11:23:21.680Z,3.30
2023-03-01T11:25:56.784Z,3.40
2023-03-01T11:28:24.095Z,3.50
2023-03-01T11:31:13.204Z,3.50
2023-03-01T11:33:51.023Z,3.50
2023-03-01T11:36:23.236Z,3.50
2023-03-01T11:38:49.999Z,3.40
2023-03-01T11:41:19.410Z,3.50
2023-03-01T11:43:52.832Z,3.50
2023-03-01T11:46:37.833Z,3.50
2023-03-01T11:49:33.121Z,3.60
2023-03-01T11:52:18.404Z,3.70
2023-03-01T11:55:08.690Z,3.70
2023-03-01T11:57:59.032Z,3.80
2023-03-01T12:00:57.046Z,3.90
2023-03-01T12:03:42.586Z,3.90
2023-03-01T12:06:32.562Z,4.00
2023-03-01T12:09:27.140Z,4.00
2023-03-01T12:12:11.072Z,4.00
2023-03-01T12:14:48.086Z,3.90
2023-03-01T12:17:32.916Z,3.90
2023-03-01T12:20:23.120Z,3.90
2023-03-01T12:23:20.644Z,3.90
2023-03-01T12:26:00.228Z,3.90
2023-03-01T12:28:46.064Z,3.90
2023-03-01T12:31:42.396Z,4.00
2023-03-01T12:34:23.871Z,4.10
2023-03-01T12:37:12.102Z,4.20
2023-03-01T12:40:24.518Z,4.20
2023-03-01T12:42:53.831Z,4.40
2023-03-01T12:45:41.243Z,4.50
2023-03-01T12:48:25.389Z,4.50
2023-03-01T12:50:58.904Z,4.50
2023-03-01T12:53:28.216Z,4.50
2023-03-01T12:55:57.441Z,4.40
2023-03-01T12:59:16.004Z,4.30
2023-03-01T13:01:48.332Z,4.20
2023-03-01T13:04:34.367Z,4.20
2023-03-01T13:07:25.739Z,4.20
2023-03-01T13:10:10.211Z,4.10
2023-03-01T13:12:43.147Z,4.20
2023-03-01T13:15:24.992Z,4.20
2023-03-01T13:17:56.758Z,4.20
2023-03-01T13:20:44.073Z,4.30
2023-03-01T13:23:23.029Z,4.30
2023-03-01T13:26:14.973Z,4.30
2023-03-01T13:28:57.625Z,4.20
2023-03-01T13:31:27.428Z,4.20
2023-03-01T13:33:55.776Z,4.10
2023-03-01T13:36:28.824Z,4.20
2023-03-01T13:38:58.306Z,4.20
2023-03-01T13:41:40.502Z,4.30
2023-03-01T13:44:26.109Z,4.30
2023-03-01T13:46:54.923Z,4.30
2023-03-01T13:49:26.572Z,4.30
2023-03-01T13:51:53.981Z,4.30
2023-03-01T13:54:32.261Z,4.30
2023-03-01T13:57:00.618Z,4.30
2023-03-01T13:59:27.903Z,4.30
2023-03-01T14:01:56.837Z,4.30
2023-03-01T14:04:29.315Z,4.30
2023-03-01T14:07:12.420Z,4.20
2023-03-01T14:09:42.598Z,4.30
2023-03-01T14:12:44.655Z,4.20
2023-03-01T14:15:21.237Z,4.20
2023-03-01T14:18:00.606Z,4.20
2023-03-01T14:20:29.904Z,4.10
2023-03-01T14:22:58.440Z,4.10
2023-03-01T14:25:33.138Z,4.10
2023-03-01T14:28:14.647Z,4.10
2023-03-01T14:31:00.880Z,4.00
2023-03-01T14:33:31.405Z,4.00
2023-03-01T14:36:03.732Z,4.00
2023-03-01T14:38:35.699Z,4.00
2023-03-01T14:41:16.623Z,4.00
2023-03-01T14:43:48.570Z,3.90
2023-03-01T14:46:24.967Z,3.90
2023-03-01T14:48:59.054Z,3.80
2023-03-01T14:51:25.802Z,3.80
2023-03-01T14:53:52.863Z,3.80
2023-03-01T14:56:20.356Z,3.80
2023-03-01T14:58:50.834Z,3.80
2023-03-01T15:01:18.447Z,3.80
2023-03-01T15:03:47.923Z,3.80
2023-03-01T15:06:18.394Z,3.80
2023-03-01T15:08:49.903Z,3.80
2023-03-01T15:11:31.719Z,3.80
2023-03-01T15:13:59.684Z,3.80
2023-03-01T15:16:34.253Z,3.80
2023-03-01T15:19:06.614Z,3.80
2023-03-01T15:21:35.310Z,3.80
2023-03-01T15:24:05.476Z,3.80
2023-03-01T15:26:38.352Z,3.80
2023-03-01T15:29:05.166Z,3.80
2023-03-01T15:31:36.175Z,3.80
2023-03-01T15:34:23.050Z,3.70
2023-03-01T15:36:51.206Z,3.70
2023-03-01T15:39:44.036Z,3.70
2023-03-01T15:42:51.638Z,3.80
2023-03-01T15:53:15.441Z,3.60
2023-03-01T15:55:42.525Z,3.60
2023-03-01T15:58:21.620Z,3.50
2023-03-01T16:01:00.363Z,3.50
2023-03-01T16:03:29.054Z,3.50
2023-03-01T16:05:55.820Z,3.40
2023-03-01T16:08:22.530Z,3.40
2023-03-01T16:10:52.103Z,3.40
2023-03-01T16:13:19.003Z,3.40
2023-03-01T16:15:46.056Z,3.30
2023-03-01T16:18:13.010Z,3.30
2023-03-01T16:20:40.063Z,3.30
2023-03-01T16:23:08.892Z,3.20
2023-03-01T16:25:36.639Z,3.20
2023-03-01T16:28:09.397Z,3.20
2023-03-01T16:30:37.348Z,3.10
2023-03-01T16:33:19.269Z,3.10
2023-03-01T16:35:51.640Z,3.10
2023-03-01T16:38:18.388Z,3.00
2023-03-01T16:40:49.723Z,3.00
2023-03-01T16:43:16.468Z,2.90
2023-03-01T16:45:45.627Z,2.90
2023-03-01T16:48:12.679Z,2.80
2023-03-01T16:50:39.619Z,2.80
2023-03-01T16:53:06.630Z,2.80
2023-03-01T16:55:34.352Z,2.70
2023-03-01T16:58:01.390Z,2.70
2023-03-01T17:00:28.533Z,2.60
2023-03-01T17:02:55.777Z,2.60
2023-03-01T17:05:24.721Z,2.50
2023-03-01T17:07:51.781Z,2.50
2023-03-01T17:10:18.512Z,2.40
2023-03-01T17:12:45.312Z,2.40
2023-03-01T17:15:13.018Z,2.40
2023-03-01T17:17:39.878Z,2.30
2023-03-01T17:20:07.050Z,2.20
2023-03-01T17:22:33.827Z,2.20
2023-03-01T17:25:01.055Z,2.20
2023-03-01T17:27:27.923Z,2.20
2023-03-01T17:29:54.692Z,2.10
2023-03-01T17:32:21.571Z,2.10
2023-03-01T17:34:48.529Z,2.10
2023-03-01T17:37:15.252Z,2.00
2023-03-01T17:39:42.007Z,2.00
2023-03-01T17:42:08.723Z,2.00
2023-03-01T17:44:35.492Z,2.00
2023-03-01T17:47:03.721Z,2.00
2023-03-01T17:49:30.891Z,2.00
2023-03-01T17:51:57.936Z,1.90
2023-03-01T17:54:24.681Z,1.90
2023-03-01T17:56:52.202Z,1.90
2023-03-01T17:59:19.453Z,1.90
2023-03-01T18:01:46.800Z,1.90
2023-03-01T18:04:13.681Z,1.90
2023-03-01T18:06:43.403Z,1.90
2023-03-01T18:09:11.800Z,1.90
2023-03-01T18:11:38.630Z,1.90
2023-03-01T18:14:05.358Z,1.80
2023-03-01T18:16:34.059Z,1.80
2023-03-01T18:19:02.214Z,1.80
2023-03-01T18:21:30.141Z,1.80
2023-03-01T18:23:59.482Z,1.80
2023-03-01T18:26:27.841Z,1.80
2023-03-01T18:28:58.212Z,1.80
2023-03-01T18:31:25.489Z,1.80
2023-03-01T18:33:54.920Z,1.80
2023-03-01T18:36:25.880Z,1.80
2023-03-01T18:38:53.744Z,1.80
2023-03-01T18:41:20.423Z,1.80
2023-03-01T18:43:47.180Z,1.80
2023-03-01T18:46:14.241Z,1.80
2023-03-01T18:48:40.949Z,1.80
2023-03-01T18:51:09.928Z,1.80
2023-03-01T18:53:36.606Z,1.80
2023-03-01T18:56:03.433Z,1.80
2023-03-01T18:58:30.246Z,1.70
2023-03-01T19:00:57.969Z,1.70
2023-03-01T19:03:25.495Z,1.70
2023-03-01T19:05:52.325Z,1.70
2023-03-01T19:08:19.014Z,1.80
2023-03-01T19:10:45.721Z,1.80
2023-03-01T19:13:12.435Z,1.80
2023-03-01T19:15:39.147Z,1.80
2023-03-01T19:18:05.997Z,1.80
2023-03-01T19:20:32.754Z,1.80
2023-03-01T19:22:59.467Z,1.80
2023-03-01T19:25:26.231Z,1.80
2023-03-01T19:27:52.949Z,1.80
2023-03-01T19:30:19.732Z,1.80
2023-03-01T19:32:46.749Z,1.80
2023-03-01T19:35:13.497Z,1.80
2023-03-01T19:37:40.284Z,1.80
2023-03-01T19:40:07.815Z,1.80
2023-03-01T19:42:34.919Z,1.80
2023-03-01T19:45:01.714Z,1.90
2023-03-01T19:47:28.636Z,1.80
2023-03-01T19:49:55.344Z,1.80
2023-03-01T19:52:22.103Z,1.80
2023-03-01T19:54:50.481Z,1.80
2023-03-01T19:57:18.833Z,1.90
2023-03-01T19:59:46.295Z,1.90
2023-03-01T20:02:13.080Z,1.80
2023-03-01T20:04:39.776Z,1.80
2023-03-01T20:07:06.448Z,1.90
2023-03-01T20:09:33.684Z,1.90
2023-03-01T20:12:00.344Z,1.90
2023-03-01T20:14:27.094Z,1.90
2023-03-01T20:16:53.800Z,1.90
2023-03-01T20:19:21.227Z,1.90
2023-03-01T20:21:47.906Z,1.90
2023-03-01T20:24:14.634Z,1.90
2023-03-01T20:26:41.337Z,1.90
2023-03-01T20:29:08.896Z,1.90
2023-03-01T20:31:35.617Z,1.90
2023-03-01T20:34:02.420Z,1.90
2023-03-01T20:36:29.196Z,1.90
2023-03-01T20:38:56.801Z,1.90
2023-03-01T20:41:26.923Z,1.80
2023-03-01T20:43:56.366Z,1.80
2023-03-01T20:46:26.585Z,1.80
2023-03-01T20:48:53.955Z,1.80
2023-03-01T20:51:20.907Z,1.80
2023-03-01T20:53:47.748Z,1.80
2023-03-01T20:56:15.921Z,1.70
2023-03-01T20:58:42.757Z,1.70
2023-03-01T21:01:10.513Z,1.70
2023-03-01T21:03:37.585Z,1.70
2023-03-01T21:06:06.297Z,1.70
2023-03-01T21:08:34.392Z,1.60
2023-03-01T21:11:02.295Z,1.60
2023-03-01T21:13:29.876Z,1.60
2023-03-01T21:16:04.571Z,1.60
2023-03-01T21:18:32.313Z,1.60
2023-03-01T21:21:04.879Z,1.60
2023-03-01T21:23:33.224Z,1.60
2023-03-01T21:26:01.144Z,1.60
2023-03-01T21:28:32.196Z,1.60
2023-03-01T21:31:10.590Z,1.60
2023-03-01T21:33:38.751Z,1.60
2023-03-01T21:36:08.659Z,1.60
2023-03-01T21:38:38.563Z,1.60
2023-03-01T21:41:17.085Z,1.60
2023-03-01T21:43:45.032Z,1.60
2023-03-01T21:46:14.497Z,1.60
2023-03-01T21:48:44.291Z,1.60
2023-03-01T21:51:14.906Z,1.60
2023-03-01T21:53:41.934Z,1.60
2023-03-01T21:56:09.727Z,1.60
2023-03-01T21:58:36.691Z,1.50
2023-03-01T22:01:08.858Z,1.50
2023-03-01T22:03:45.080Z,1.50
2023-03-01T22:06:19.210Z,1.50
2023-03-01T22:08:46.844Z,1.50
2023-03-01T22:11:13.966Z,1.50
2023-03-01T22:13:41.009Z,1.40
2023-03-01T22:16:07.998Z,1.40
2023-03-01T22:18:34.752Z,1.40
2023-03-01T22:21:06.395Z,1.40
2023-03-01T22:23:34.662Z,1.40
2023-03-01T22:26:01.992Z,1.40
2023-03-01T22:28:29.819Z,1.30
2023-03-01T22:30:56.546Z,1.30
2023-03-01T22:33:23.572Z,1.30
2023-03-01T22:35:50.460Z,1.30
2023-03-01T22:38:17.212Z,1.30
2023-03-01T22:40:43.921Z,1.30
2023-03-01T22:43:10.592Z,1.20
2023-03-01T22:45:37.350Z,1.20
2023-03-01T22:48:05.103Z,1.20
2023-03-01T22:50:31.855Z,1.20
2023-03-01T22:53:01.129Z,1.10
2023-03-01T22:55:28.627Z,1.10
2023-03-01T22:57:55.310Z,1.10
2023-03-01T23:00:22.320Z,1.00
2023-03-01T23:02:49.066Z,1.00
2023-03-01T23:05:15.890Z,1.00
2023-03-01T23:07:42.572Z,1.00
2023-03-01T23:10:11.797Z,0.90
2023-03-01T23:12:38.477Z,0.90
2023-03-01T23:15:06.199Z,0.90
2023-03-01T23:17:32.990Z,0.90
2023-03-01T23:19:59.683Z,0.80
2023-03-01T23:22:26.443Z,0.80
2023-03-01T23:24:53.150Z,0.80
2023-03-01T23:27:19.998Z,0.80
2023-03-01T23:29:46.709Z,0.80
2023-03-01T23:32:13.948Z,0.80
2023-03-01T23:34:43.697Z,0.80
2023-03-01T23:37:10.838Z,0.80
2023-03-01T23:39:38.145Z,0.80
2023-03-01T23:42:05.103Z,0.80
2023-03-01T23:44:32.079Z,0.70
2023-03-01T23:46:59.441Z,0.70
2023-03-01T23:49:26.199Z,0.70
2023-03-01T23:51:52.990Z,0.70
2023-03-01T23:54:22.148Z,0.80
2023-03-01T23:56:48.918Z,0.70
2023-03-01T23:59:17.669Z,0.70
